createdAt,value
2019-05-13T00:00:53.867Z,81.30
2019-05-13T00:03:23.981Z,81.70
2019-05-13T00:05:53.561Z,81.70
2019-05-13T00:08:24.824Z,81.90
2019-05-13T00:10:54.297Z,81.70
2019-05-13T00:13:23.736Z,82.00
2019-05-13T00:15:54.372Z,81.80
2019-05-13T00:18:23.534Z,82.00
2019-05-13T00:20:54.248Z,82.80
2019-05-13T00:23:23.816Z,81.70
2019-05-13T00:25:54.508Z,82.10
2019-05-13T00:28:23.578Z,81.50
2019-05-13T00:30:54.128Z,82.20
2019-05-13T00:33:24.348Z,82.10
2019-05-13T00:35:53.482Z,82.00
2019-05-13T00:38:24.370Z,82.00
2019-05-13T00:40:54.503Z,82.00
2019-05-13T00:43:24.529Z,82.10
2019-05-13T00:45:53.464Z,82.30
2019-05-13T00:48:23.321Z,82.30
2019-05-13T00:50:54.271Z,82.50
2019-05-13T00:53:23.772Z,82.60
2019-05-13T00:55:53.572Z,82.60
2019-05-13T00:58:24.175Z,82.80
2019-05-13T01:00:54.604Z,83.00
2019-05-13T01:03:26.310Z,82.80
2019-05-13T01:05:53.640Z,82.80
2019-05-13T01:08:23.719Z,82.70
2019-05-13T01:10:53.668Z,82.80
2019-05-13T01:13:23.767Z,82.80
2019-05-13T01:15:54.450Z,82.80
2019-05-13T01:18:23.432Z,82.80
2019-05-13T01:20:53.898Z,83.00
2019-05-13T01:23:24.018Z,83.20
2019-05-13T01:25:54.402Z,83.30
2019-05-13T01:28:23.932Z,83.20
2019-05-13T01:30:53.994Z,83.00
2019-05-13T01:33:23.775Z,83.00
2019-05-13T01:35:53.893Z,83.30
2019-05-13T01:38:24.079Z,83.40
2019-05-13T01:40:53.996Z,83.40
2019-05-13T01:43:24.480Z,83.30
2019-05-13T01:45:53.660Z,83.40
2019-05-13T01:48:24.044Z,83.40
2019-05-13T01:50:53.391Z,83.60
2019-05-13T01:53:24.210Z,83.50
2019-05-13T01:55:53.401Z,83.80
2019-05-13T01:58:23.572Z,84.40
2019-05-13T02:00:54.983Z,84.60
2019-05-13T02:03:24.581Z,84.60
2019-05-13T02:05:54.387Z,84.40
2019-05-13T02:08:24.620Z,84.30
2019-05-13T02:10:57.585Z,84.30
2019-05-13T02:13:26.407Z,84.20
2019-05-13T02:15:55.609Z,84.40
2019-05-13T02:18:26.464Z,84.20
2019-05-13T02:20:57.418Z,84.20
2019-05-13T02:23:26.020Z,84.00
2019-05-13T02:25:55.231Z,83.80
2019-05-13T02:28:24.935Z,84.10
2019-05-13T02:30:55.938Z,84.50
2019-05-13T02:33:24.156Z,84.60
2019-05-13T02:35:53.506Z,84.20
2019-05-13T02:38:26.440Z,84.40
2019-05-13T02:40:53.112Z,84.40
2019-05-13T02:43:23.830Z,84.50
2019-05-13T02:45:53.740Z,84.40
2019-05-13T02:48:24.200Z,84.40
2019-05-13T02:50:53.906Z,84.10
2019-05-13T02:53:24.556Z,84.10
2019-05-13T02:55:53.979Z,85.00
2019-05-13T02:58:24.462Z,84.40
2019-05-13T03:00:53.971Z,84.20
2019-05-13T03:03:25.262Z,84.30
2019-05-13T03:05:54.538Z,84.50
2019-05-13T03:08:46.241Z,84.50
2019-05-13T03:10:55.402Z,85.20
2019-05-13T03:13:24.290Z,84.20
2019-05-13T03:16:13.356Z,84.40
2019-05-13T03:18:43.533Z,84.40
2019-05-13T03:21:13.094Z,84.60
2019-05-13T03:23:44.191Z,84.50
2019-05-13T03:26:13.497Z,84.40
2019-05-13T03:28:43.667Z,84.60
2019-05-13T03:31:16.647Z,84.50
2019-05-13T03:33:46.227Z,84.40
2019-05-13T03:36:16.846Z,84.50
2019-05-13T03:38:59.735Z,84.30
2019-05-13T03:41:16.730Z,84.40
2019-05-13T03:43:46.232Z,84.10
2019-05-13T03:46:14.896Z,84.50
2019-05-13T03:48:47.062Z,84.20
2019-05-13T03:51:15.770Z,84.90
2019-05-13T03:53:44.460Z,84.70
2019-05-13T03:56:14.231Z,84.70
2019-05-13T03:58:43.780Z,84.40
2019-05-13T04:01:13.468Z,84.40
2019-05-13T04:03:44.486Z,84.10
2019-05-13T04:06:14.003Z,84.10
2019-05-13T04:08:43.709Z,83.90
2019-05-13T04:11:13.107Z,83.70
2019-05-13T04:13:42.940Z,84.00
2019-05-13T04:16:12.694Z,83.90
2019-05-13T04:18:42.792Z,83.40
2019-05-13T04:21:13.009Z,83.40
2019-05-13T04:23:42.836Z,83.50
2019-05-13T04:26:14.951Z,83.40
2019-05-13T04:28:43.405Z,83.30
2019-05-13T04:31:14.056Z,83.40
2019-05-13T04:33:43.038Z,83.50
2019-05-13T04:36:13.323Z,83.40
2019-05-13T04:38:44.245Z,83.20
2019-05-13T04:41:12.409Z,83.00
2019-05-13T04:43:43.814Z,83.70
2019-05-13T04:46:14.242Z,83.00
2019-05-13T04:48:44.531Z,83.00
2019-05-13T04:51:14.020Z,83.00
2019-05-13T04:53:43.232Z,82.90
2019-05-13T04:56:13.709Z,82.80
2019-05-13T04:58:43.051Z,82.80
2019-05-13T05:01:52.265Z,82.40
2019-05-13T05:04:27.416Z,82.60
2019-05-13T05:07:06.724Z,83.70
2019-05-13T05:10:13.285Z,82.70
2019-05-13T05:12:46.863Z,82.30
2019-05-13T05:15:24.384Z,82.60
2019-05-13T05:18:16.685Z,82.90
2019-05-13T05:21:11.778Z,82.80
2019-05-13T05:24:05.253Z,82.90
2019-05-13T05:26:56.627Z,82.60
2019-05-13T05:29:43.249Z,82.50
2019-05-13T05:32:23.866Z,82.70
2019-05-13T05:35:12.132Z,82.80
2019-05-13T05:37:45.852Z,82.60
2019-05-13T05:40:28.051Z,82.20
2019-05-13T05:42:46.940Z,83.00
2019-05-13T05:45:15.837Z,82.00
2019-05-13T05:47:45.372Z,82.20
2019-05-13T05:50:14.839Z,81.90
2019-05-13T05:52:43.856Z,81.90
2019-05-13T05:55:12.688Z,81.70
2019-05-13T05:57:42.244Z,82.00
2019-05-13T06:00:12.153Z,81.70
2019-05-13T06:02:43.843Z,81.40
2019-05-13T06:05:13.314Z,80.90
2019-05-13T06:07:42.345Z,81.10
2019-05-13T06:10:11.463Z,80.90
2019-05-13T06:12:42.402Z,81.40
2019-05-13T06:15:12.359Z,80.70
2019-05-13T06:17:42.067Z,80.10
2019-05-13T06:20:13.211Z,80.00
2019-05-13T06:22:42.552Z,80.10
2019-05-13T06:25:14.612Z,79.70
2019-05-13T06:27:42.271Z,79.60
2019-05-13T06:30:12.591Z,79.60
2019-05-13T06:32:41.859Z,79.80
2019-05-13T06:35:11.548Z,79.70
2019-05-13T06:37:41.472Z,79.60
2019-05-13T06:40:12.382Z,80.10
2019-05-13T06:42:41.803Z,79.90
2019-05-13T06:45:12.429Z,79.80
2019-05-13T06:47:41.907Z,79.60
2019-05-13T06:50:11.703Z,79.20
2019-05-13T06:52:42.488Z,78.80
2019-05-13T06:55:11.705Z,78.50
2019-05-13T06:57:42.260Z,78.60
2019-05-13T07:00:12.217Z,78.30
2019-05-13T07:02:42.730Z,78.60
2019-05-13T07:05:13.249Z,78.50
2019-05-13T07:07:42.497Z,78.40
2019-05-13T07:10:12.775Z,78.40
2019-05-13T07:12:41.526Z,78.30
2019-05-13T07:15:11.546Z,77.90
2019-05-13T07:17:41.543Z,77.70
2019-05-13T07:20:11.779Z,77.70
2019-05-13T07:22:42.090Z,77.80
2019-05-13T07:25:12.573Z,77.80
2019-05-13T07:27:42.443Z,77.40
2019-05-13T07:30:11.587Z,77.30
2019-05-13T07:32:42.052Z,77.10
2019-05-13T07:35:13.949Z,77.00
2019-05-13T07:37:42.490Z,76.70
2019-05-13T07:40:11.704Z,76.40
2019-05-13T07:42:41.886Z,76.50
2019-05-13T07:45:12.113Z,75.90
2019-05-13T07:47:41.646Z,75.60
2019-05-13T07:50:12.680Z,75.90
2019-05-13T07:52:42.247Z,76.10
2019-05-13T07:55:11.984Z,76.00
2019-05-13T07:57:42.339Z,76.00
2019-05-13T08:00:12.427Z,76.00
2019-05-13T08:02:41.784Z,76.10
2019-05-13T08:05:12.031Z,76.10
2019-05-13T08:07:42.186Z,76.20
2019-05-13T08:10:11.711Z,76.20
2019-05-13T08:12:41.327Z,76.10
2019-05-13T08:15:11.902Z,76.20
2019-05-13T08:17:46.720Z,76.10
2019-05-13T08:20:12.514Z,76.00
2019-05-13T08:22:42.490Z,75.70
2019-05-13T08:25:12.614Z,75.70
2019-05-13T08:27:42.173Z,75.20
2019-05-13T08:30:12.004Z,75.20
2019-05-13T08:32:41.943Z,75.20
2019-05-13T08:35:12.389Z,74.60
2019-05-13T08:37:41.473Z,73.90
2019-05-13T08:40:12.036Z,73.50
2019-05-13T08:42:41.493Z,73.60
2019-05-13T08:45:12.126Z,73.80
2019-05-13T08:47:41.951Z,73.70
2019-05-13T08:50:12.045Z,73.30
2019-05-13T08:52:42.247Z,73.20
2019-05-13T08:55:15.937Z,72.90
2019-05-13T08:57:43.183Z,72.30
2019-05-13T09:00:13.632Z,72.30
2019-05-13T09:02:42.516Z,72.40
2019-05-13T09:05:12.219Z,72.60
2019-05-13T09:07:41.350Z,72.50
2019-05-13T09:10:12.407Z,72.60
2019-05-13T09:12:43.569Z,72.60
2019-05-13T09:15:12.238Z,72.70
2019-05-13T09:17:42.488Z,72.90
2019-05-13T09:20:11.708Z,72.90
2019-05-13T09:22:41.217Z,72.60
2019-05-13T09:25:12.348Z,72.50
2019-05-13T09:27:42.459Z,72.30
2019-05-13T09:30:11.842Z,71.90
2019-05-13T09:32:42.551Z,71.20
2019-05-13T09:35:12.175Z,70.60
2019-05-13T09:37:42.294Z,70.20
2019-05-13T09:40:11.696Z,70.10
2019-05-13T09:42:49.250Z,70.20
2019-05-13T09:45:12.321Z,70.30
2019-05-13T09:47:41.724Z,70.50
2019-05-13T09:50:27.968Z,70.00
2019-05-13T09:52:42.814Z,69.70
2019-05-13T09:55:25.322Z,69.70
2019-05-13T09:57:41.776Z,70.00
2019-05-13T10:00:12.242Z,68.90
2019-05-13T10:02:42.590Z,68.50
2019-05-13T10:05:11.761Z,68.30
2019-05-13T10:07:42.446Z,67.90
2019-05-13T10:10:11.971Z,67.50
2019-05-13T10:12:42.451Z,67.10
2019-05-13T10:15:12.554Z,66.90
2019-05-13T10:17:42.777Z,67.10
2019-05-13T10:20:12.482Z,67.00
2019-05-13T10:22:41.940Z,66.60
2019-05-13T10:25:13.739Z,66.10
2019-05-13T10:27:42.749Z,65.60
2019-05-13T10:30:12.770Z,65.50
2019-05-13T10:32:42.567Z,65.50
2019-05-13T10:35:12.253Z,65.60
2019-05-13T10:37:42.111Z,65.70
2019-05-13T10:40:11.626Z,65.60
2019-05-13T10:42:43.166Z,66.20
2019-05-13T10:45:12.873Z,66.20
2019-05-13T10:47:42.367Z,66.10
2019-05-13T10:50:11.427Z,65.50
2019-05-13T10:52:42.554Z,64.80
2019-05-13T10:55:12.875Z,64.30
2019-05-13T10:57:42.352Z,63.90
2019-05-13T11:00:13.167Z,63.80
2019-05-13T11:02:42.337Z,64.10
2019-05-13T11:05:12.390Z,64.70
2019-05-13T11:07:42.080Z,65.20
2019-05-13T11:10:13.409Z,65.40
2019-05-13T11:12:42.159Z,65.30
2019-05-13T11:15:10.991Z,65.00
2019-05-13T11:17:39.569Z,64.80
2019-05-13T11:20:09.162Z,65.10
2019-05-13T11:22:38.571Z,64.80
2019-05-13T11:25:07.292Z,64.80
2019-05-13T11:27:35.907Z,64.70
2019-05-13T11:30:07.233Z,64.90
2019-05-13T11:32:36.337Z,65.30
2019-05-13T11:35:07.076Z,65.60
2019-05-13T11:37:35.655Z,65.50
2019-05-13T11:40:06.875Z,65.20
2019-05-13T11:42:35.545Z,65.30
2019-05-13T11:45:06.364Z,65.30
2019-05-13T11:47:36.611Z,64.80
2019-05-13T11:50:11.559Z,64.70
2019-05-13T11:52:41.729Z,64.20
2019-05-13T11:55:12.825Z,64.40
2019-05-13T11:57:44.392Z,64.40
2019-05-13T12:00:13.469Z,64.30
2019-05-13T12:02:44.682Z,64.00
2019-05-13T12:05:13.787Z,64.00
2019-05-13T12:07:42.606Z,63.70
2019-05-13T12:10:12.477Z,63.00
2019-05-13T12:12:43.909Z,62.70
2019-05-13T12:15:45.044Z,62.80
2019-05-13T12:17:42.918Z,62.50
2019-05-13T12:20:13.451Z,62.70
2019-05-13T12:22:42.592Z,63.10
2019-05-13T12:25:13.843Z,63.10
2019-05-13T12:27:44.311Z,63.10
2019-05-13T12:30:12.941Z,63.10
2019-05-13T12:32:43.812Z,63.30
2019-05-13T12:35:13.425Z,63.70
2019-05-13T12:37:42.411Z,63.80
2019-05-13T12:40:11.459Z,63.90
2019-05-13T12:42:44.351Z,64.00
2019-05-13T12:45:14.088Z,64.20
2019-05-13T12:47:43.229Z,64.30
2019-05-13T12:50:13.648Z,64.40
2019-05-13T12:52:43.794Z,64.30
2019-05-13T12:55:14.045Z,64.50
2019-05-13T12:57:43.836Z,64.00
2019-05-13T13:00:13.755Z,64.20
2019-05-13T13:02:49.971Z,64.00
2019-05-13T13:05:19.941Z,64.10
2019-05-13T13:07:43.545Z,64.20
2019-05-13T13:10:14.715Z,64.20
2019-05-13T13:12:42.624Z,63.70
2019-05-13T13:17:41.656Z,64.00
2019-05-13T13:20:14.898Z,64.20
2019-05-13T13:22:41.392Z,64.70
2019-05-13T13:25:13.305Z,65.00
2019-05-13T13:28:03.258Z,65.20
2019-05-13T13:30:12.412Z,65.20
2019-05-13T13:32:45.379Z,65.00
2019-05-13T13:35:14.636Z,65.10
2019-05-13T13:37:45.853Z,64.90
2019-05-13T13:40:12.493Z,64.70
2019-05-13T13:42:43.363Z,64.70
2019-05-13T13:45:12.572Z,64.60
2019-05-13T13:47:45.569Z,64.70
2019-05-13T13:50:12.146Z,64.60
2019-05-13T13:52:45.002Z,64.80
2019-05-13T13:55:15.787Z,64.70
2019-05-13T13:57:44.942Z,64.20
2019-05-13T14:00:34.465Z,63.10
2019-05-13T14:02:43.311Z,61.90
2019-05-13T14:05:12.708Z,61.20
2019-05-13T14:07:09.467Z,63.80
2019-05-13T14:07:42.419Z,59.80
2019-05-13T14:10:11.708Z,59.00
2019-05-13T14:12:41.697Z,58.70
2019-05-13T14:15:10.543Z,58.40
2019-05-13T14:17:39.130Z,58.40
2019-05-13T14:20:09.104Z,58.40
2019-05-13T14:22:37.719Z,58.30
2019-05-13T14:25:07.272Z,58.40
2019-05-13T14:27:36.051Z,58.20
2019-05-13T14:30:07.409Z,58.20
2019-05-13T14:32:35.971Z,58.20
2019-05-13T14:35:09.068Z,58.30
2019-05-13T14:37:39.654Z,58.30
2019-05-13T14:40:08.847Z,58.30
2019-05-13T14:42:39.275Z,58.40
2019-05-13T14:45:08.527Z,59.10
2019-05-13T14:47:37.099Z,59.30
2019-05-13T14:50:07.397Z,59.60
2019-05-13T14:52:37.730Z,60.30
2019-05-13T14:55:09.630Z,60.90
2019-05-13T14:57:38.288Z,60.90
2019-05-13T15:00:08.520Z,61.50
2019-05-13T15:02:37.312Z,62.00
2019-05-13T15:05:06.252Z,62.30
2019-05-13T15:07:34.898Z,62.40
2019-05-13T15:10:07.085Z,62.50
2019-05-13T15:12:35.720Z,62.80
2019-05-13T15:15:06.471Z,63.20
2019-05-13T15:17:35.761Z,63.60
2019-05-13T15:20:07.399Z,63.80
2019-05-13T15:22:36.023Z,64.10
2019-05-13T15:25:05.720Z,64.50
2019-05-13T15:27:34.494Z,65.00
2019-05-13T15:30:16.737Z,65.30
2019-05-13T15:32:33.518Z,65.40
2019-05-13T15:35:03.073Z,65.80
2019-05-13T15:37:32.256Z,66.20
2019-05-13T15:40:02.329Z,66.70
2019-05-13T15:42:31.886Z,67.00
2019-05-13T15:45:01.811Z,67.30
2019-05-13T15:47:30.848Z,67.70
2019-05-13T15:50:02.147Z,67.90
2019-05-13T15:52:31.684Z,68.00
2019-05-13T15:55:01.467Z,68.50
2019-05-13T15:57:31.865Z,69.00
2019-05-13T16:00:01.949Z,69.00
2019-05-13T16:02:31.334Z,69.30
2019-05-13T16:05:02.252Z,69.40
2019-05-13T16:07:30.263Z,69.80
2019-05-13T16:10:01.237Z,69.40
2019-05-13T16:12:31.854Z,69.60
2019-05-13T16:15:01.765Z,69.70
2019-05-13T16:17:38.775Z,69.90
2019-05-13T16:20:01.917Z,70.30
2019-05-13T16:22:31.578Z,70.30
2019-05-13T16:25:01.503Z,70.70
2019-05-13T16:27:31.175Z,70.80
2019-05-13T16:30:02.474Z,70.70
2019-05-13T16:32:32.049Z,71.20
2019-05-13T16:35:03.024Z,71.40
2019-05-13T16:37:31.665Z,71.80
2019-05-13T16:40:00.313Z,72.70
2019-05-13T16:42:31.225Z,72.20
2019-05-13T16:44:59.148Z,72.20
2019-05-13T16:47:27.792Z,72.10
2019-05-13T16:49:56.406Z,72.00
2019-05-13T16:52:24.963Z,72.30
2019-05-13T16:54:53.637Z,72.40
2019-05-13T16:57:22.246Z,72.20
2019-05-13T16:59:51.731Z,72.30
2019-05-13T17:02:20.464Z,72.80
2019-05-13T17:04:49.040Z,72.70
2019-05-13T17:07:17.721Z,72.50
2019-05-13T17:09:46.369Z,72.30
2019-05-13T17:12:15.973Z,72.30
2019-05-13T17:14:44.800Z,72.30
2019-05-13T17:17:13.773Z,72.30
2019-05-13T17:19:42.637Z,72.10
2019-05-13T17:22:11.510Z,71.90
2019-05-13T17:24:42.480Z,71.70
2019-05-13T17:27:12.165Z,71.30
2019-05-13T17:29:40.913Z,71.60
2019-05-13T17:32:11.432Z,70.80
2019-05-13T17:34:42.554Z,71.10
2019-05-13T17:37:11.739Z,71.70
2019-05-13T17:39:41.487Z,72.20
2019-05-13T17:42:12.180Z,72.80
2019-05-13T17:44:46.012Z,73.10
2019-05-13T17:47:11.744Z,72.90
2019-05-13T17:49:41.830Z,73.40
2019-05-13T17:52:11.533Z,72.50
2019-05-13T17:54:42.616Z,72.60
2019-05-13T17:57:12.416Z,72.60
2019-05-13T17:59:41.784Z,72.60
2019-05-13T18:02:11.848Z,72.60
2019-05-13T18:04:41.508Z,72.60
2019-05-13T18:07:12.196Z,72.50
2019-05-13T18:09:42.334Z,72.60
2019-05-13T18:12:11.554Z,72.50
2019-05-13T18:14:41.211Z,72.40
2019-05-13T18:17:12.393Z,72.90
2019-05-13T18:19:42.151Z,73.00
2019-05-13T18:22:11.557Z,73.40
2019-05-13T18:24:40.285Z,73.50
2019-05-13T18:27:08.854Z,73.20
2019-05-13T18:29:37.463Z,73.10
2019-05-13T18:32:06.146Z,73.10
2019-05-13T18:34:34.724Z,73.00
2019-05-13T18:37:03.332Z,72.80
2019-05-13T18:39:32.355Z,72.60
2019-05-13T18:42:02.996Z,72.60
2019-05-13T18:44:31.846Z,72.70
2019-05-13T18:47:01.505Z,72.70
2019-05-13T18:49:31.742Z,73.20
2019-05-13T18:52:00.838Z,72.80
2019-05-13T18:54:31.385Z,72.40
2019-05-13T18:57:01.580Z,72.50
2019-05-13T18:59:32.005Z,73.10
2019-05-13T19:02:01.536Z,73.40
2019-05-13T19:04:31.272Z,73.40
2019-05-13T19:07:02.282Z,73.40
2019-05-13T19:09:31.134Z,73.30
2019-05-13T19:12:01.382Z,67.00
2019-05-13T19:14:31.774Z,66.90
2019-05-13T19:17:00.545Z,66.70
2019-05-13T19:19:31.509Z,66.60
2019-05-13T19:22:01.908Z,66.50
2019-05-13T19:24:31.254Z,65.90
2019-05-13T19:27:01.739Z,65.80
2019-05-13T19:29:31.783Z,66.20
2019-05-13T19:32:01.839Z,67.30
2019-05-13T19:34:32.402Z,68.00
2019-05-13T19:37:02.432Z,68.90
2019-05-13T19:39:31.360Z,69.40
2019-05-13T19:41:59.974Z,70.30
2019-05-13T19:44:28.529Z,70.70
2019-05-13T19:46:57.176Z,71.40
2019-05-13T19:49:32.128Z,72.00
2019-05-13T19:51:56.325Z,72.40
2019-05-13T19:54:25.241Z,72.90
2019-05-13T19:56:53.875Z,73.30
2019-05-13T19:59:22.458Z,73.60
2019-05-13T20:01:52.804Z,74.00
2019-05-13T20:04:21.821Z,74.40
2019-05-13T20:06:51.876Z,74.50
2019-05-13T20:09:21.531Z,74.80
2019-05-13T20:11:55.375Z,74.40
2019-05-13T20:14:23.017Z,75.40
2019-05-13T20:16:52.414Z,75.50
2019-05-13T20:19:22.362Z,76.00
2019-05-13T20:21:51.777Z,76.10
2019-05-13T20:24:21.998Z,76.20
2019-05-13T20:26:52.173Z,76.30
2019-05-13T20:29:20.960Z,76.40
2019-05-13T20:31:51.710Z,76.30
2019-05-13T20:34:22.046Z,76.00
2019-05-13T20:36:51.593Z,76.80
2019-05-13T20:39:22.416Z,76.80
2019-05-13T20:41:55.574Z,76.80
2019-05-13T20:44:22.113Z,76.60
2019-05-13T20:46:51.850Z,76.50
2019-05-13T20:49:21.822Z,76.70
2019-05-13T20:51:51.677Z,76.80
2019-05-13T20:54:22.025Z,77.10
2019-05-13T20:56:52.078Z,77.40
2019-05-13T20:59:21.573Z,77.50
2019-05-13T21:01:51.205Z,77.60
2019-05-13T21:04:21.567Z,77.80
2019-05-13T21:06:51.577Z,78.20
2019-05-13T21:09:20.359Z,78.20
2019-05-13T21:11:51.338Z,78.60
2019-05-13T21:14:21.606Z,79.00
2019-05-13T21:16:49.652Z,79.30
2019-05-13T21:19:21.977Z,79.60
2019-05-13T21:21:51.100Z,80.00
2019-05-13T21:24:21.355Z,80.50
2019-05-13T21:26:52.060Z,80.40
2019-05-13T21:29:21.657Z,80.50
2019-05-13T21:31:50.234Z,80.80
2019-05-13T21:34:21.015Z,81.00
2019-05-13T21:36:51.573Z,81.20
2019-05-13T21:39:21.248Z,81.20
2019-05-13T21:41:51.782Z,81.20
2019-05-13T21:44:19.722Z,82.20
2019-05-13T21:46:48.306Z,81.30
2019-05-13T21:49:17.518Z,81.30
2019-05-13T21:51:46.272Z,81.90
2019-05-13T21:54:14.839Z,81.00
2019-05-13T21:56:43.398Z,81.00
2019-05-13T21:59:11.989Z,80.90
2019-05-13T22:01:42.253Z,80.90
2019-05-13T22:04:12.370Z,80.70
2019-05-13T22:06:41.140Z,80.70
2019-05-13T22:09:11.838Z,80.70
2019-05-13T22:11:41.986Z,80.80
2019-05-13T22:14:11.426Z,80.90
2019-05-13T22:16:56.603Z,81.00
2019-05-13T22:19:25.361Z,81.00
2019-05-13T22:21:53.921Z,81.20
2019-05-13T22:24:22.465Z,81.10
2019-05-13T22:26:51.263Z,81.20
2019-05-13T22:29:22.991Z,81.10
2019-05-13T22:31:51.175Z,81.20
2019-05-13T22:34:21.199Z,81.30
2019-05-13T22:36:51.684Z,81.40
2019-05-13T22:39:21.999Z,81.30
2019-05-13T22:41:52.269Z,81.30
2019-05-13T22:44:21.789Z,81.40
2019-05-13T22:46:51.735Z,81.70
2019-05-13T22:49:22.095Z,81.70
2019-05-13T22:51:51.573Z,81.70
2019-05-13T22:54:22.220Z,81.90
2019-05-13T22:56:52.205Z,82.30
2019-05-13T22:59:21.500Z,82.40
2019-05-13T23:01:52.451Z,82.40
2019-05-13T23:04:21.188Z,82.50
2019-05-13T23:06:51.842Z,82.50
2019-05-13T23:09:21.534Z,82.70
2019-05-13T23:11:51.141Z,82.50
2019-05-13T23:14:21.840Z,82.60
2019-05-13T23:16:49.956Z,82.70
2019-05-13T23:19:18.528Z,82.90
2019-05-13T23:21:47.123Z,83.30
2019-05-13T23:24:15.680Z,83.40
2019-05-13T23:26:44.238Z,83.60
2019-05-13T23:29:12.857Z,83.70
2019-05-13T23:31:41.626Z,83.80
2019-05-13T23:34:11.998Z,83.70
2019-05-13T23:36:42.344Z,83.60
2019-05-13T23:39:11.661Z,83.70
2019-05-13T23:41:41.673Z,83.80
2019-05-13T23:44:24.074Z,84.00
2019-05-13T23:46:42.020Z,84.10
2019-05-13T23:49:11.879Z,84.10
2019-05-13T23:51:41.399Z,84.50
2019-05-13T23:54:12.109Z,84.50
2019-05-13T23:56:41.707Z,84.70
2019-05-13T23:59:11.908Z,84.80
